sensor_id;sensor_type;location;lat;lon;timestamp;pressure;altitude;pressure_sealevel;temperature;humidity
79413;BME280;68863;49.528;11.010;2023-08-06T00:00:37;97565.31;;;17.55;70.40
79413;BME280;68863;49.528;11.010;2023-08-06T00:01:38;97567.97;;;17.55;70.71
79413;BME280;68863;49.528;11.010;2023-08-06T00:02:38;97570.28;;;17.58;70.77
79413;BME280;68863;49.528;11.010;2023-08-06T00:03:38;97567.16;;;17.54;70.95
79413;BME280;68863;49.528;11.010;2023-08-06T00:04:38;97572.16;;;17.41;71.22
79413;BME280;68863;49.528;11.010;2023-08-06T00:05:41;97575.31;;;17.45;70.96
79413;BME280;68863;49.528;11.010;2023-08-06T00:06:43;97563.38;;;17.41;71.63
79413;BME280;68863;49.528;11.010;2023-08-06T00:07:47;97572.81;;;17.43;71.14
79413;BME280;68863;49.528;11.010;2023-08-06T00:08:48;97575.63;;;17.50;71.30
79413;BME280;68863;49.528;11.010;2023-08-06T00:09:48;97575.81;;;17.48;70.66
79413;BME280;68863;49.528;11.010;2023-08-06T00:10:48;97564.38;;;17.48;70.73
79413;BME280;68863;49.528;11.010;2023-08-06T00:11:51;97563.69;;;17.46;70.75
79413;BME280;68863;49.528;11.010;2023-08-06T00:12:52;97564.72;;;17.36;70.72
79413;BME280;68863;49.528;11.010;2023-08-06T00:13:52;97564.03;;;17.43;70.68
79413;BME280;68863;49.528;11.010;2023-08-06T00:14:53;97568.19;;;17.29;71.36
79413;BME280;68863;49.528;11.010;2023-08-06T00:15:54;97565.53;;;17.37;71.13
79413;BME280;68863;49.528;11.010;2023-08-06T00:16:54;97567.03;;;17.31;71.46
79413;BME280;68863;49.528;11.010;2023-08-06T00:17:54;97566.03;;;17.32;71.18
79413;BME280;68863;49.528;11.010;2023-08-06T00:18:54;97560.41;;;17.27;71.24
79413;BME280;68863;49.528;11.010;2023-08-06T00:19:55;97556.75;;;17.28;71.65
79413;BME280;68863;49.528;11.010;2023-08-06T00:20:55;97554.13;;;17.28;70.93
79413;BME280;68863;49.528;11.010;2023-08-06T00:21:55;97551.97;;;17.32;71.22
79413;BME280;68863;49.528;11.010;2023-08-06T00:22:55;97548.97;;;17.27;71.64
79413;BME280;68863;49.528;11.010;2023-08-06T00:23:56;97549.44;;;17.30;71.42
79413;BME280;68863;49.528;11.010;2023-08-06T00:24:56;97546.63;;;17.24;71.64
79413;BME280;68863;49.528;11.010;2023-08-06T00:25:57;97550.13;;;17.32;70.94
79413;BME280;68863;49.528;11.010;2023-08-06T00:26:57;97549.13;;;17.25;71.97
79413;BME280;68863;49.528;11.010;2023-08-06T00:27:58;97543.81;;;17.33;72.01
79413;BME280;68863;49.528;11.010;2023-08-06T00:28:58;97538.69;;;17.32;72.05
79413;BME280;68863;49.528;11.010;2023-08-06T00:29:59;97547.78;;;17.37;71.48
79413;BME280;68863;49.528;11.010;2023-08-06T00:30:59;97541.97;;;17.42;71.08
79413;BME280;68863;49.528;11.010;2023-08-06T00:31:59;97546.13;;;17.36;71.67
79413;BME280;68863;49.528;11.010;2023-08-06T00:32:59;97535.84;;;17.33;72.05
79413;BME280;68863;49.528;11.010;2023-08-06T00:34:00;97537.69;;;17.33;72.11
79413;BME280;68863;49.528;11.010;2023-08-06T00:35:00;97533.19;;;17.33;71.94
79413;BME280;68863;49.528;11.010;2023-08-06T00:36:00;97530.22;;;17.36;72.51
79413;BME280;68863;49.528;11.010;2023-08-06T00:37:00;97526.88;;;17.34;71.63
79413;BME280;68863;49.528;11.010;2023-08-06T00:38:01;97529.72;;;17.33;71.50
79413;BME280;68863;49.528;11.010;2023-08-06T00:39:01;97521.56;;;17.43;71.73
79413;BME280;68863;49.528;11.010;2023-08-06T00:40:02;97518.25;;;17.49;71.41
79413;BME280;68863;49.528;11.010;2023-08-06T00:41:03;97509.50;;;17.32;71.89
79413;BME280;68863;49.528;11.010;2023-08-06T00:42:03;97512.00;;;17.25;72.13
79413;BME280;68863;49.528;11.010;2023-08-06T00:43:04;97505.03;;;17.24;72.02
79413;BME280;68863;49.528;11.010;2023-08-06T00:44:04;97508.53;;;17.25;72.37
79413;BME280;68863;49.528;11.010;2023-08-06T00:45:04;97504.69;;;17.27;70.78
79413;BME280;68863;49.528;11.010;2023-08-06T00:46:05;97503.06;;;17.18;71.21
79413;BME280;68863;49.528;11.010;2023-08-06T00:47:07;97499.22;;;17.29;71.72
79413;BME280;68863;49.528;11.010;2023-08-06T00:48:08;97498.38;;;17.20;72.39
79413;BME280;68863;49.528;11.010;2023-08-06T00:49:08;97492.91;;;17.30;72.16
79413;BME280;68863;49.528;11.010;2023-08-06T00:50:08;97492.41;;;17.26;72.33
79413;BME280;68863;49.528;11.010;2023-08-06T00:51:10;97494.44;;;17.24;72.22
79413;BME280;68863;49.528;11.010;2023-08-06T00:52:11;97492.63;;;17.08;72.33
79413;BME280;68863;49.528;11.010;2023-08-06T00:53:13;97496.09;;;17.25;72.19
79413;BME280;68863;49.528;11.010;2023-08-06T00:54:14;97491.13;;;17.14;72.49
79413;BME280;68863;49.528;11.010;2023-08-06T00:55:15;97499.09;;;17.14;72.63
79413;BME280;68863;49.528;11.010;2023-08-06T00:56:15;97498.56;;;17.19;72.59
79413;BME280;68863;49.528;11.010;2023-08-06T00:57:16;97501.06;;;17.28;72.67
79413;BME280;68863;49.528;11.010;2023-08-06T00:58:16;97499.88;;;17.23;73.42
79413;BME280;68863;49.528;11.010;2023-08-06T00:59:17;97499.41;;;17.19;73.45
79413;BME280;68863;49.528;11.010;2023-08-06T01:00:18;97506.34;;;17.20;73.69
79413;BME280;68863;49.528;11.010;2023-08-06T01:01:19;97505.53;;;17.20;72.99
79413;BME280;68863;49.528;11.010;2023-08-06T01:02:19;97509.84;;;17.29;72.38
79413;BME280;68863;49.528;11.010;2023-08-06T01:03:19;97512.66;;;17.19;71.60
79413;BME280;68863;49.528;11.010;2023-08-06T01:04:20;97519.97;;;17.25;71.89
79413;BME280;68863;49.528;11.010;2023-08-06T01:05:21;97519.25;;;17.31;72.12
79413;BME280;68863;49.528;11.010;2023-08-06T01:06:44;97520.44;;;17.29;71.82
79413;BME280;68863;49.528;11.010;2023-08-06T01:07:51;97518.31;;;17.24;72.70
79413;BME280;68863;49.528;11.010;2023-08-06T01:08:59;97521.09;;;17.23;72.37
79413;BME280;68863;49.528;11.010;2023-08-06T01:11:43;97519.97;;;17.25;71.14
79413;BME280;68863;49.528;11.010;2023-08-06T01:14:24;97520.97;;;17.24;70.71
79413;BME280;68863;49.528;11.010;2023-08-06T01:15:33;97512.47;;;17.37;70.37
79413;BME280;68863;49.528;11.010;2023-08-06T01:16:35;97517.63;;;17.30;70.51
79413;BME280;68863;49.528;11.010;2023-08-06T01:17:37;97515.50;;;17.18;71.08
79413;BME280;68863;49.528;11.010;2023-08-06T01:18:38;97517.13;;;17.27;70.68
79413;BME280;68863;49.528;11.010;2023-08-06T01:19:39;97521.75;;;17.33;70.72
79413;BME280;68863;49.528;11.010;2023-08-06T01:20:40;97510.44;;;17.39;70.08
79413;BME280;68863;49.528;11.010;2023-08-06T01:21:40;97507.22;;;17.21;70.37
79413;BME280;68863;49.528;11.010;2023-08-06T01:22:40;97513.47;;;17.20;70.56
79413;BME280;68863;49.528;11.010;2023-08-06T01:23:42;97515.50;;;17.18;71.05
79413;BME280;68863;49.528;11.010;2023-08-06T01:24:48;97514.31;;;17.12;71.91
79413;BME280;68863;49.528;11.010;2023-08-06T01:26:11;97517.16;;;17.10;72.74
79413;BME280;68863;49.528;11.010;2023-08-06T01:29:57;97503.38;;;17.23;71.52
79413;BME280;68863;49.528;11.010;2023-08-06T01:31:02;97496.94;;;17.18;71.84
79413;BME280;68863;49.528;11.010;2023-08-06T01:32:03;97500.09;;;17.05;72.21
79413;BME280;68863;49.528;11.010;2023-08-06T01:33:04;97500.94;;;16.97;72.70
79413;BME280;68863;49.528;11.010;2023-08-06T01:34:08;97504.06;;;17.17;71.24
79413;BME280;68863;49.528;11.010;2023-08-06T01:35:11;97499.44;;;17.03;70.48
79413;BME280;68863;49.528;11.010;2023-08-06T01:36:12;97497.78;;;17.02;72.07
79413;BME280;68863;49.528;11.010;2023-08-06T01:37:13;97498.94;;;16.99;72.63
79413;BME280;68863;49.528;11.010;2023-08-06T01:38:14;97501.91;;;16.96;73.06
79413;BME280;68863;49.528;11.010;2023-08-06T01:39:17;97494.81;;;17.05;72.38
79413;BME280;68863;49.528;11.010;2023-08-06T01:40:20;97494.78;;;17.13;71.83
79413;BME280;68863;49.528;11.010;2023-08-06T01:41:21;97488.78;;;17.19;70.43
79413;BME280;68863;49.528;11.010;2023-08-06T01:42:21;97489.78;;;17.26;70.03
79413;BME280;68863;49.528;11.010;2023-08-06T01:43:21;97484.66;;;17.17;70.75
79413;BME280;68863;49.528;11.010;2023-08-06T01:44:21;97485.81;;;17.14;71.38
79413;BME280;68863;49.528;11.010;2023-08-06T01:45:22;97485.84;;;16.98;71.99
79413;BME280;68863;49.528;11.010;2023-08-06T01:46:22;97481.53;;;17.05;71.72
79413;BME280;68863;49.528;11.010;2023-08-06T01:47:22;97476.19;;;17.21;71.47
79413;BME280;68863;49.528;11.010;2023-08-06T01:48:23;97475.16;;;17.30;69.35
79413;BME280;68863;49.528;11.010;2023-08-06T01:49:23;97470.09;;;17.12;69.58
79413;BME280;68863;49.528;11.010;2023-08-06T01:50:23;97473.38;;;17.14;70.17
79413;BME280;68863;49.528;11.010;2023-08-06T01:51:23;97474.22;;;17.07;71.37
79413;BME280;68863;49.528;11.010;2023-08-06T01:52:24;97471.56;;;17.07;71.53
79413;BME280;68863;49.528;11.010;2023-08-06T01:53:24;97474.94;;;17.01;72.03
79413;BME280;68863;49.528;11.010;2023-08-06T01:54:24;97483.34;;;16.96;71.92
79413;BME280;68863;49.528;11.010;2023-08-06T01:55:25;97475.41;;;16.96;72.72
79413;BME280;68863;49.528;11.010;2023-08-06T01:56:25;97479.22;;;17.02;72.39
79413;BME280;68863;49.528;11.010;2023-08-06T01:57:25;97476.88;;;17.07;72.33
79413;BME280;68863;49.528;11.010;2023-08-06T01:58:25;97482.50;;;17.04;72.13
79413;BME280;68863;49.528;11.010;2023-08-06T01:59:26;97476.06;;;16.98;72.43
79413;BME280;68863;49.528;11.010;2023-08-06T02:00:26;97478.22;;;16.95;72.29
79413;BME280;68863;49.528;11.010;2023-08-06T02:01:27;97485.38;;;16.94;72.34
79413;BME280;68863;49.528;11.010;2023-08-06T02:02:28;97480.38;;;16.91;72.76
79413;BME280;68863;49.528;11.010;2023-08-06T02:03:28;97487.34;;;16.92;72.57
79413;BME280;68863;49.528;11.010;2023-08-06T02:04:28;97482.41;;;16.89;72.77
79413;BME280;68863;49.528;11.010;2023-08-06T02:05:29;97477.41;;;16.94;72.48
79413;BME280;68863;49.528;11.010;2023-08-06T02:06:29;97483.53;;;17.03;71.86
79413;BME280;68863;49.528;11.010;2023-08-06T02:07:29;97480.06;;;16.94;72.03
79413;BME280;68863;49.528;11.010;2023-08-06T02:08:29;97482.22;;;16.90;71.38
79413;BME280;68863;49.528;11.010;2023-08-06T02:09:30;97474.78;;;16.78;72.32
79413;BME280;68863;49.528;11.010;2023-08-06T02:10:30;97475.91;;;16.92;72.02
79413;BME280;68863;49.528;11.010;2023-08-06T02:11:30;97479.53;;;17.07;71.57
79413;BME280;68863;49.528;11.010;2023-08-06T02:12:30;97470.44;;;17.09;71.14
79413;BME280;68863;49.528;11.010;2023-08-06T02:13:31;97466.78;;;17.02;71.43
79413;BME280;68863;49.528;11.010;2023-08-06T02:14:32;97471.28;;;16.94;71.92
79413;BME280;68863;49.528;11.010;2023-08-06T02:15:32;97466.81;;;16.94;71.79
79413;BME280;68863;49.528;11.010;2023-08-06T02:16:33;97468.66;;;16.85;72.27
79413;BME280;68863;49.528;11.010;2023-08-06T02:17:33;97472.44;;;16.91;72.50
79413;BME280;68863;49.528;11.010;2023-08-06T02:18:33;97468.97;;;16.74;72.68
79413;BME280;68863;49.528;11.010;2023-08-06T02:19:33;97461.31;;;16.71;72.95
79413;BME280;68863;49.528;11.010;2023-08-06T02:20:34;97461.84;;;16.66;73.04
79413;BME280;68863;49.528;11.010;2023-08-06T02:21:34;97470.44;;;16.85;72.16
79413;BME280;68863;49.528;11.010;2023-08-06T02:22:34;97461.81;;;16.91;72.06
79413;BME280;68863;49.528;11.010;2023-08-06T02:23:34;97456.03;;;16.87;72.25
79413;BME280;68863;49.528;11.010;2023-08-06T02:24:35;97453.72;;;17.01;71.45
79413;BME280;68863;49.528;11.010;2023-08-06T02:25:35;97463.97;;;16.96;71.17
79413;BME280;68863;49.528;11.010;2023-08-06T02:26:35;97459.38;;;16.81;71.97
79413;BME280;68863;49.528;11.010;2023-08-06T02:27:37;97456.88;;;16.80;72.34
79413;BME280;68863;49.528;11.010;2023-08-06T02:28:37;97457.56;;;16.74;73.07
79413;BME280;68863;49.528;11.010;2023-08-06T02:29:39;97457.69;;;16.72;73.32
79413;BME280;68863;49.528;11.010;2023-08-06T02:30:52;97455.03;;;16.72;73.26
79413;BME280;68863;49.528;11.010;2023-08-06T02:31:52;97454.06;;;16.89;72.22
79413;BME280;68863;49.528;11.010;2023-08-06T02:32:52;97457.66;;;16.97;72.06
79413;BME280;68863;49.528;11.010;2023-08-06T02:33:52;97455.53;;;16.92;71.44
79413;BME280;68863;49.528;11.010;2023-08-06T02:34:54;97453.22;;;16.81;71.46
79413;BME280;68863;49.528;11.010;2023-08-06T02:36:01;97451.41;;;16.81;71.00
79413;BME280;68863;49.528;11.010;2023-08-06T02:37:01;97448.75;;;16.73;71.64
79413;BME280;68863;49.528;11.010;2023-08-06T02:38:01;97445.94;;;16.66;72.48
79413;BME280;68863;49.528;11.010;2023-08-06T02:39:02;97452.06;;;16.75;71.32
79413;BME280;68863;49.528;11.010;2023-08-06T02:40:02;97443.44;;;16.73;70.91
79413;BME280;68863;49.528;11.010;2023-08-06T02:41:03;97447.78;;;16.74;71.09
79413;BME280;68863;49.528;11.010;2023-08-06T02:42:04;97443.47;;;16.81;69.50
79413;BME280;68863;49.528;11.010;2023-08-06T02:43:04;97440.97;;;16.80;69.69
79413;BME280;68863;49.528;11.010;2023-08-06T02:44:04;97440.16;;;16.79;71.02
79413;BME280;68863;49.528;11.010;2023-08-06T02:45:05;97432.81;;;16.98;70.13
79413;BME280;68863;49.528;11.010;2023-08-06T02:46:05;97430.22;;;16.81;69.91
79413;BME280;68863;49.528;11.010;2023-08-06T02:47:06;97424.41;;;16.86;69.74
79413;BME280;68863;49.528;11.010;2023-08-06T02:48:06;97423.22;;;16.88;68.95
79413;BME280;68863;49.528;11.010;2023-08-06T02:49:06;97418.06;;;16.95;68.60
79413;BME280;68863;49.528;11.010;2023-08-06T02:50:07;97416.78;;;16.83;69.78
79413;BME280;68863;49.528;11.010;2023-08-06T02:51:07;97416.09;;;16.81;70.02
79413;BME280;68863;49.528;11.010;2023-08-06T02:52:08;97414.09;;;16.91;70.33
79413;BME280;68863;49.528;11.010;2023-08-06T02:53:08;97410.13;;;16.95;70.71
79413;BME280;68863;49.528;11.010;2023-08-06T02:54:08;97412.44;;;16.98;70.51
79413;BME280;68863;49.528;11.010;2023-08-06T02:55:09;97416.91;;;16.98;70.27
79413;BME280;68863;49.528;11.010;2023-08-06T02:56:10;97405.84;;;16.86;70.87
79413;BME280;68863;49.528;11.010;2023-08-06T02:57:10;97413.13;;;16.76;71.88
79413;BME280;68863;49.528;11.010;2023-08-06T02:58:10;97411.13;;;16.61;72.57
79413;BME280;68863;49.528;11.010;2023-08-06T02:59:11;97409.31;;;16.70;72.83
79413;BME280;68863;49.528;11.010;2023-08-06T03:00:11;97412.63;;;16.64;73.43
79413;BME280;68863;49.528;11.010;2023-08-06T03:01:12;97412.31;;;16.67;73.00
79413;BME280;68863;49.528;11.010;2023-08-06T03:02:12;97405.38;;;16.74;73.02
79413;BME280;68863;49.528;11.010;2023-08-06T03:03:12;97413.13;;;16.67;72.93
79413;BME280;68863;49.528;11.010;2023-08-06T03:04:12;97412.44;;;16.65;73.02
79413;BME280;68863;49.528;11.010;2023-08-06T03:05:13;97411.31;;;16.68;72.46
79413;BME280;68863;49.528;11.010;2023-08-06T03:06:13;97415.44;;;16.71;72.86
79413;BME280;68863;49.528;11.010;2023-08-06T03:07:13;97420.41;;;16.65;73.21
79413;BME280;68863;49.528;11.010;2023-08-06T03:08:14;97415.78;;;16.84;72.34
79413;BME280;68863;49.528;11.010;2023-08-06T03:09:14;97406.81;;;16.85;71.99
79413;BME280;68863;49.528;11.010;2023-08-06T03:10:14;97408.28;;;16.96;71.61
79413;BME280;68863;49.528;11.010;2023-08-06T03:11:15;97396.69;;;16.97;71.69
79413;BME280;68863;49.528;11.010;2023-08-06T03:12:15;97390.09;;;16.84;72.03
79413;BME280;68863;49.528;11.010;2023-08-06T03:13:16;97393.09;;;16.73;72.28
79413;BME280;68863;49.528;11.010;2023-08-06T03:14:16;97404.34;;;16.67;72.86
79413;BME280;68863;49.528;11.010;2023-08-06T03:15:17;97400.19;;;16.64;73.45
79413;BME280;68863;49.528;11.010;2023-08-06T03:16:17;97403.19;;;16.61;73.62
79413;BME280;68863;49.528;11.010;2023-08-06T03:17:17;97405.50;;;16.73;73.63
79413;BME280;68863;49.528;11.010;2023-08-06T03:18:17;97405.19;;;16.67;73.43
79413;BME280;68863;49.528;11.010;2023-08-06T03:19:18;97397.41;;;16.74;73.33
79413;BME280;68863;49.528;11.010;2023-08-06T03:20:18;97402.38;;;16.77;72.89
79413;BME280;68863;49.528;11.010;2023-08-06T03:21:18;97405.19;;;16.67;73.50
79413;BME280;68863;49.528;11.010;2023-08-06T03:22:18;97406.00;;;16.76;73.05
79413;BME280;68863;49.528;11.010;2023-08-06T03:23:19;97401.38;;;16.78;72.90
79413;BME280;68863;49.528;11.010;2023-08-06T03:24:19;97402.03;;;16.80;72.71
79413;BME280;68863;49.528;11.010;2023-08-06T03:25:19;97403.19;;;16.70;73.07
79413;BME280;68863;49.528;11.010;2023-08-06T03:26:20;97404.84;;;16.79;72.97
79413;BME280;68863;49.528;11.010;2023-08-06T03:27:20;97401.88;;;16.82;72.64
79413;BME280;68863;49.528;11.010;2023-08-06T03:28:20;97397.41;;;16.82;72.62
79413;BME280;68863;49.528;11.010;2023-08-06T03:29:22;97401.19;;;16.72;72.85
79413;BME280;68863;49.528;11.010;2023-08-06T03:30:22;97400.72;;;16.60;73.83
79413;BME280;68863;49.528;11.010;2023-08-06T03:31:22;97404.66;;;16.72;73.12
79413;BME280;68863;49.528;11.010;2023-08-06T03:32:23;97403.22;;;16.78;72.94
79413;BME280;68863;49.528;11.010;2023-08-06T03:33:23;97395.75;;;16.81;72.53
79413;BME280;68863;49.528;11.010;2023-08-06T03:34:23;97401.06;;;16.81;72.47
79413;BME280;68863;49.528;11.010;2023-08-06T03:35:23;97397.22;;;16.67;72.95
79413;BME280;68863;49.528;11.010;2023-08-06T03:36:24;97401.38;;;16.62;73.81
79413;BME280;68863;49.528;11.010;2023-08-06T03:37:24;97403.38;;;16.76;73.05
79413;BME280;68863;49.528;11.010;2023-08-06T03:38:24;97403.03;;;16.71;72.96
79413;BME280;68863;49.528;11.010;2023-08-06T03:39:24;97403.03;;;16.63;73.34
79413;BME280;68863;49.528;11.010;2023-08-06T03:40:25;97407.31;;;16.72;73.05
79413;BME280;68863;49.528;11.010;2023-08-06T03:41:25;97401.53;;;16.77;72.82
79413;BME280;68863;49.528;11.010;2023-08-06T03:42:25;97402.84;;;16.81;72.13
79413;BME280;68863;49.528;11.010;2023-08-06T03:43:25;97399.06;;;16.75;72.36
79413;BME280;68863;49.528;11.010;2023-08-06T03:44:26;97396.09;;;16.78;72.09
79413;BME280;68863;49.528;11.010;2023-08-06T03:45:28;97386.63;;;16.76;72.22
79413;BME280;68863;49.528;11.010;2023-08-06T03:46:28;97388.44;;;16.67;72.42
79413;BME280;68863;49.528;11.010;2023-08-06T03:47:28;97390.28;;;16.58;72.62
79413;BME280;68863;49.528;11.010;2023-08-06T03:48:29;97388.63;;;16.57;72.50
79413;BME280;68863;49.528;11.010;2023-08-06T03:49:29;97381.34;;;16.59;72.09
79413;BME280;68863;49.528;11.010;2023-08-06T03:50:29;97380.84;;;16.56;72.83
79413;BME280;68863;49.528;11.010;2023-08-06T03:51:29;97382.34;;;16.50;72.46
79413;BME280;68863;49.528;11.010;2023-08-06T03:52:30;97381.84;;;16.55;72.47
79413;BME280;68863;49.528;11.010;2023-08-06T03:53:30;97381.19;;;16.53;72.48
79413;BME280;68863;49.528;11.010;2023-08-06T03:54:30;97377.88;;;16.59;71.88
79413;BME280;68863;49.528;11.010;2023-08-06T03:55:30;97381.88;;;16.47;72.79
79413;BME280;68863;49.528;11.010;2023-08-06T03:56:31;97373.25;;;16.36;72.62
79413;BME280;68863;49.528;11.010;2023-08-06T03:57:31;97377.53;;;16.46;72.34
79413;BME280;68863;49.528;11.010;2023-08-06T03:58:31;97383.81;;;16.53;71.92
79413;BME280;68863;49.528;11.010;2023-08-06T03:59:31;97382.34;;;16.42;72.10
79413;BME280;68863;49.528;11.010;2023-08-06T04:00:32;97378.72;;;16.35;72.61
79413;BME280;68863;49.528;11.010;2023-08-06T04:01:32;97388.16;;;16.29;72.88
79413;BME280;68863;49.528;11.010;2023-08-06T04:02:32;97373.94;;;16.38;72.45
79413;BME280;68863;49.528;11.010;2023-08-06T04:03:33;97387.50;;;16.27;72.67
79413;BME280;68863;49.528;11.010;2023-08-06T04:04:33;97379.22;;;16.22;72.87
79413;BME280;68863;49.528;11.010;2023-08-06T04:05:33;97378.72;;;16.27;72.86
79413;BME280;68863;49.528;11.010;2023-08-06T04:06:33;97381.03;;;16.30;72.90
79413;BME280;68863;49.528;11.010;2023-08-06T04:07:34;97375.06;;;16.36;72.35
79413;BME280;68863;49.528;11.010;2023-08-06T04:08:34;97376.72;;;16.29;72.88
79413;BME280;68863;49.528;11.010;2023-08-06T04:09:51;97375.91;;;16.20;72.81
79413;BME280;68863;49.528;11.010;2023-08-06T04:10:52;97383.03;;;16.36;72.19
79413;BME280;68863;49.528;11.010;2023-08-06T04:11:52;97385.19;;;16.24;72.42
79413;BME280;68863;49.528;11.010;2023-08-06T04:12:53;97385.19;;;16.16;72.71
79413;BME280;68863;49.528;11.010;2023-08-06T04:13:53;97380.53;;;16.18;73.00
79413;BME280;68863;49.528;11.010;2023-08-06T04:14:55;97386.50;;;16.12;73.22
79413;BME280;68863;49.528;11.010;2023-08-06T04:16:00;97383.19;;;16.10;73.08
79413;BME280;68863;49.528;11.010;2023-08-06T04:17:01;97383.53;;;16.15;72.71
79413;BME280;68863;49.528;11.010;2023-08-06T04:18:01;97389.66;;;16.24;72.64
79413;BME280;68863;49.528;11.010;2023-08-06T04:19:01;97383.84;;;16.20;72.65
79413;BME280;68863;49.528;11.010;2023-08-06T04:20:01;97383.69;;;16.22;72.33
79413;BME280;68863;49.528;11.010;2023-08-06T04:21:02;97386.81;;;16.33;72.08
79413;BME280;68863;49.528;11.010;2023-08-06T04:22:03;97383.19;;;16.42;71.93
79413;BME280;68863;49.528;11.010;2023-08-06T04:23:06;97377.72;;;16.44;71.76
79413;BME280;68863;49.528;11.010;2023-08-06T04:24:06;97385.50;;;16.37;71.63
79413;BME280;68863;49.528;11.010;2023-08-06T04:25:06;97377.53;;;16.37;72.08
79413;BME280;68863;49.528;11.010;2023-08-06T04:26:07;97379.38;;;16.37;71.96
79413;BME280;68863;49.528;11.010;2023-08-06T04:27:08;97373.09;;;16.22;72.42
79413;BME280;68863;49.528;11.010;2023-08-06T04:28:08;97385.84;;;16.10;73.02
79413;BME280;68863;49.528;11.010;2023-08-06T04:29:08;97384.00;;;16.18;72.62
79413;BME280;68863;49.528;11.010;2023-08-06T04:30:09;97376.06;;;16.18;73.14
79413;BME280;68863;49.528;11.010;2023-08-06T04:31:11;97378.56;;;16.20;72.81
79413;BME280;68863;49.528;11.010;2023-08-06T04:32:12;97377.88;;;16.18;73.17
79413;BME280;68863;49.528;11.010;2023-08-06T04:33:13;97380.88;;;16.23;73.13
79413;BME280;68863;49.528;11.010;2023-08-06T04:34:13;97377.91;;;16.34;72.61
79413;BME280;68863;49.528;11.010;2023-08-06T04:35:13;97373.25;;;16.36;72.76
79413;BME280;68863;49.528;11.010;2023-08-06T04:36:14;97370.94;;;16.17;73.49
79413;BME280;68863;49.528;11.010;2023-08-06T04:37:14;97367.78;;;16.13;73.51
79413;BME280;68863;49.528;11.010;2023-08-06T04:38:14;97369.97;;;16.34;73.07
79413;BME280;68863;49.528;11.010;2023-08-06T04:39:14;97377.41;;;16.39;72.96
79413;BME280;68863;49.528;11.010;2023-08-06T04:40:15;97374.75;;;16.39;72.80
79413;BME280;68863;49.528;11.010;2023-08-06T04:41:15;97378.53;;;16.36;72.86
79413;BME280;68863;49.528;11.010;2023-08-06T04:42:15;97378.03;;;16.41;72.77
79413;BME280;68863;49.528;11.010;2023-08-06T04:43:15;97375.06;;;16.44;72.95
79413;BME280;68863;49.528;11.010;2023-08-06T04:44:16;97382.84;;;16.21;73.36
79413;BME280;68863;49.528;11.010;2023-08-06T04:45:16;97376.91;;;16.27;73.37
79413;BME280;68863;49.528;11.010;2023-08-06T04:46:16;97373.25;;;16.36;72.96
79413;BME280;68863;49.528;11.010;2023-08-06T04:47:17;97374.41;;;16.34;72.67
79413;BME280;68863;49.528;11.010;2023-08-06T04:48:17;97374.25;;;16.35;73.23
79413;BME280;68863;49.528;11.010;2023-08-06T04:50:19;97374.25;;;16.27;73.67
79413;BME280;68863;49.528;11.010;2023-08-06T04:51:20;97375.91;;;16.28;73.45
79413;BME280;68863;49.528;11.010;2023-08-06T04:52:20;97377.22;;;16.24;73.82
79413;BME280;68863;49.528;11.010;2023-08-06T04:53:20;97374.41;;;16.26;73.47
79413;BME280;68863;49.528;11.010;2023-08-06T04:54:21;97379.22;;;16.14;73.98
79413;BME280;68863;49.528;11.010;2023-08-06T04:55:21;97379.88;;;16.24;73.38
79413;BME280;68863;49.528;11.010;2023-08-06T04:56:21;97372.25;;;16.21;73.29
79413;BME280;68863;49.528;11.010;2023-08-06T04:57:21;97378.38;;;16.30;72.90
79413;BME280;68863;49.528;11.010;2023-08-06T04:58:22;97381.03;;;16.38;72.57
79413;BME280;68863;49.528;11.010;2023-08-06T04:59:22;97377.22;;;16.40;72.55
79413;BME280;68863;49.528;11.010;2023-08-06T05:00:22;97376.41;;;16.40;72.53
79413;BME280;68863;49.528;11.010;2023-08-06T05:01:22;97374.75;;;16.39;72.67
79413;BME280;68863;49.528;11.010;2023-08-06T05:02:23;97371.09;;;16.32;72.99
79413;BME280;68863;49.528;11.010;2023-08-06T05:03:23;97378.03;;;16.41;72.22
79413;BME280;68863;49.528;11.010;2023-08-06T05:04:23;97369.44;;;16.39;72.89
79413;BME280;68863;49.528;11.010;2023-08-06T05:05:24;97365.47;;;16.35;72.86
79413;BME280;68863;49.528;11.010;2023-08-06T05:06:24;97373.75;;;16.32;72.97
79413;BME280;68863;49.528;11.010;2023-08-06T05:07:24;97363.50;;;16.29;72.88
79413;BME280;68863;49.528;11.010;2023-08-06T05:08:24;97365.13;;;16.38;72.57
79413;BME280;68863;49.528;11.010;2023-08-06T05:09:24;97366.81;;;16.31;72.76
79413;BME280;68863;49.528;11.010;2023-08-06T05:10:25;97362.84;;;16.35;72.32
79413;BME280;68863;49.528;11.010;2023-08-06T05:11:26;97365.31;;;16.36;72.35
79413;BME280;68863;49.528;11.010;2023-08-06T05:12:26;97365.63;;;16.33;72.60
79413;BME280;68863;49.528;11.010;2023-08-06T05:13:26;97370.78;;;16.27;72.89
79413;BME280;68863;49.528;11.010;2023-08-06T05:14:27;97373.75;;;16.32;72.77
79413;BME280;68863;49.528;11.010;2023-08-06T05:15:27;97372.59;;;16.34;72.76
79413;BME280;68863;49.528;11.010;2023-08-06T05:16:28;97372.09;;;16.31;73.04
79413;BME280;68863;49.528;11.010;2023-08-06T05:17:28;97371.75;;;16.26;73.25
79413;BME280;68863;49.528;11.010;2023-08-06T05:18:28;97373.91;;;16.14;73.57
79413;BME280;68863;49.528;11.010;2023-08-06T05:19:30;97371.75;;;16.26;73.61
79413;BME280;68863;49.528;11.010;2023-08-06T05:20:30;97369.78;;;16.28;73.47
79413;BME280;68863;49.528;11.010;2023-08-06T05:21:31;97367.63;;;16.23;73.62
79413;BME280;68863;49.528;11.010;2023-08-06T05:22:31;97374.91;;;16.29;73.64
79413;BME280;68863;49.528;11.010;2023-08-06T05:23:31;97372.25;;;16.37;73.52
79413;BME280;68863;49.528;11.010;2023-08-06T05:24:32;97366.31;;;16.27;73.70
79413;BME280;68863;49.528;11.010;2023-08-06T05:25:34;97372.94;;;16.31;73.77